sensor_id;sensor_type;location;lat;lon;timestamp;P1;durP1;ratioP1;P2;durP2;ratioP2
39486;SDS011;25173;50.430;18.926;2023-11-21T00:01:04;5.40;;;3.72;;
39486;SDS011;25173;50.430;18.926;2023-11-21T00:04:05;10.98;;;3.40;;
39486;SDS011;25173;50.430;18.926;2023-11-21T00:07:07;5.22;;;3.38;;
39486;SDS011;25173;50.430;18.926;2023-11-21T00:10:08;5.00;;;3.17;;
39486;SDS011;25173;50.430;18.926;2023-11-21T00:13:10;3.50;;;2.30;;
39486;SDS011;25173;50.430;18.926;2023-11-21T00:16:12;4.25;;;2.75;;
39486;SDS011;25173;50.430;18.926;2023-11-21T00:19:13;3.13;;;2.30;;
39486;SDS011;25173;50.430;18.926;2023-11-21T00:22:14;2.80;;;1.90;;
39486;SDS011;25173;50.430;18.926;2023-11-21T00:25:15;4.70;;;2.35;;
39486;SDS011;25173;50.430;18.926;2023-11-21T00:28:17;4.53;;;3.38;;
39486;SDS011;25173;50.430;18.926;2023-11-21T00:31:18;4.75;;;2.10;;
39486;SDS011;25173;50.430;18.926;2023-11-21T00:34:19;3.33;;;1.70;;
39486;SDS011;25173;50.430;18.926;2023-11-21T00:37:20;4.95;;;2.25;;
39486;SDS011;25173;50.430;18.926;2023-11-21T00:40:21;4.85;;;2.58;;
39486;SDS011;25173;50.430;18.926;2023-11-21T00:43:22;3.53;;;1.77;;
39486;SDS011;25173;50.430;18.926;2023-11-21T00:46:24;5.70;;;2.45;;
39486;SDS011;25173;50.430;18.926;2023-11-21T00:49:27;4.18;;;2.55;;
39486;SDS011;25173;50.430;18.926;2023-11-21T00:52:28;4.45;;;2.70;;
39486;SDS011;25173;50.430;18.926;2023-11-21T00:55:28;5.20;;;3.05;;
39486;SDS011;25173;50.430;18.926;2023-11-21T00:58:30;4.22;;;2.50;;
39486;SDS011;25173;50.430;18.926;2023-11-21T01:01:30;3.08;;;2.28;;
39486;SDS011;25173;50.430;18.926;2023-11-21T01:04:31;5.07;;;2.47;;
39486;SDS011;25173;50.430;18.926;2023-11-21T01:07:34;4.15;;;2.17;;
39486;SDS011;25173;50.430;18.926;2023-11-21T01:10:35;4.85;;;2.55;;
39486;SDS011;25173;50.430;18.926;2023-11-21T01:13:36;7.30;;;2.55;;
39486;SDS011;25173;50.430;18.926;2023-11-21T01:16:37;5.25;;;2.67;;
39486;SDS011;25173;50.430;18.926;2023-11-21T01:19:38;3.00;;;2.25;;
39486;SDS011;25173;50.430;18.926;2023-11-21T01:22:38;3.95;;;2.17;;
39486;SDS011;25173;50.430;18.926;2023-11-21T01:25:39;3.38;;;2.10;;
39486;SDS011;25173;50.430;18.926;2023-11-21T01:28:40;3.25;;;2.00;;
39486;SDS011;25173;50.430;18.926;2023-11-21T01:31:40;3.83;;;2.50;;
39486;SDS011;25173;50.430;18.926;2023-11-21T01:34:42;4.88;;;2.53;;
39486;SDS011;25173;50.430;18.926;2023-11-21T01:37:43;4.13;;;2.88;;
39486;SDS011;25173;50.430;18.926;2023-11-21T01:40:44;4.88;;;3.13;;
39486;SDS011;25173;50.430;18.926;2023-11-21T01:43:46;3.65;;;2.60;;
39486;SDS011;25173;50.430;18.926;2023-11-21T01:46:46;3.72;;;2.40;;
39486;SDS011;25173;50.430;18.926;2023-11-21T01:49:48;5.43;;;2.95;;
39486;SDS011;25173;50.430;18.926;2023-11-21T01:52:49;5.22;;;2.70;;
39486;SDS011;25173;50.430;18.926;2023-11-21T01:55:50;5.35;;;3.08;;
39486;SDS011;25173;50.430;18.926;2023-11-21T01:58:51;6.80;;;3.38;;
39486;SDS011;25173;50.430;18.926;2023-11-21T02:01:52;3.97;;;2.13;;
39486;SDS011;25173;50.430;18.926;2023-11-21T02:04:54;5.93;;;3.25;;
39486;SDS011;25173;50.430;18.926;2023-11-21T02:07:54;4.53;;;2.65;;
39486;SDS011;25173;50.430;18.926;2023-11-21T02:10:56;6.13;;;3.25;;
39486;SDS011;25173;50.430;18.926;2023-11-21T02:13:59;5.05;;;2.75;;
39486;SDS011;25173;50.430;18.926;2023-11-21T02:17:00;5.50;;;3.40;;
39486;SDS011;25173;50.430;18.926;2023-11-21T02:20:01;6.78;;;3.70;;
39486;SDS011;25173;50.430;18.926;2023-11-21T02:23:02;7.55;;;3.50;;
39486;SDS011;25173;50.430;18.926;2023-11-21T02:26:03;5.22;;;3.38;;
39486;SDS011;25173;50.430;18.926;2023-11-21T02:29:04;3.85;;;2.20;;
39486;SDS011;25173;50.430;18.926;2023-11-21T02:32:05;8.13;;;3.40;;
39486;SDS011;25173;50.430;18.926;2023-11-21T02:35:06;8.20;;;3.55;;
39486;SDS011;25173;50.430;18.926;2023-11-21T02:38:08;4.15;;;2.08;;
39486;SDS011;25173;50.430;18.926;2023-11-21T02:41:09;4.05;;;2.08;;
39486;SDS011;25173;50.430;18.926;2023-11-21T02:44:10;4.63;;;2.47;;
39486;SDS011;25173;50.430;18.926;2023-11-21T02:47:10;4.45;;;3.08;;
39486;SDS011;25173;50.430;18.926;2023-11-21T02:50:11;6.53;;;4.00;;
39486;SDS011;25173;50.430;18.926;2023-11-21T02:53:12;7.35;;;3.70;;
39486;SDS011;25173;50.430;18.926;2023-11-21T02:56:13;8.18;;;3.67;;
39486;SDS011;25173;50.430;18.926;2023-11-21T02:59:13;6.00;;;3.17;;
39486;SDS011;25173;50.430;18.926;2023-11-21T03:02:14;5.38;;;3.20;;
39486;SDS011;25173;50.430;18.926;2023-11-21T03:05:16;6.97;;;3.25;;
39486;SDS011;25173;50.430;18.926;2023-11-21T03:08:16;5.88;;;2.85;;
39486;SDS011;25173;50.430;18.926;2023-11-21T03:11:17;5.03;;;3.10;;
39486;SDS011;25173;50.430;18.926;2023-11-21T03:14:19;5.55;;;3.92;;
39486;SDS011;25173;50.430;18.926;2023-11-21T03:17:20;5.82;;;3.45;;
39486;SDS011;25173;50.430;18.926;2023-11-21T03:20:21;5.57;;;3.47;;
39486;SDS011;25173;50.430;18.926;2023-11-21T03:23:31;7.32;;;3.70;;
39486;SDS011;25173;50.430;18.926;2023-11-21T03:26:32;8.20;;;4.03;;
39486;SDS011;25173;50.430;18.926;2023-11-21T03:29:33;10.23;;;5.20;;
39486;SDS011;25173;50.430;18.926;2023-11-21T03:32:33;5.80;;;4.32;;
39486;SDS011;25173;50.430;18.926;2023-11-21T03:35:34;10.65;;;5.63;;
39486;SDS011;25173;50.430;18.926;2023-11-21T03:38:48;9.50;;;4.47;;
39486;SDS011;25173;50.430;18.926;2023-11-21T03:41:50;6.90;;;3.70;;
39486;SDS011;25173;50.430;18.926;2023-11-21T03:44:52;6.00;;;4.22;;
39486;SDS011;25173;50.430;18.926;2023-11-21T03:47:53;6.60;;;3.55;;
39486;SDS011;25173;50.430;18.926;2023-11-21T03:50:54;8.60;;;3.80;;
39486;SDS011;25173;50.430;18.926;2023-11-21T03:54:01;4.80;;;3.00;;
39486;SDS011;25173;50.430;18.926;2023-11-21T03:57:01;8.52;;;4.32;;
39486;SDS011;25173;50.430;18.926;2023-11-21T04:00:02;8.65;;;3.90;;
39486;SDS011;25173;50.430;18.926;2023-11-21T04:03:14;8.60;;;4.90;;
39486;SDS011;25173;50.430;18.926;2023-11-21T04:06:17;9.40;;;3.85;;
39486;SDS011;25173;50.430;18.926;2023-11-21T04:09:39;7.60;;;3.95;;
39486;SDS011;25173;50.430;18.926;2023-11-21T04:12:48;8.30;;;4.38;;
39486;SDS011;25173;50.430;18.926;2023-11-21T04:15:49;8.18;;;4.30;;
39486;SDS011;25173;50.430;18.926;2023-11-21T04:18:50;8.27;;;4.25;;
39486;SDS011;25173;50.430;18.926;2023-11-21T04:21:51;4.22;;;3.28;;
39486;SDS011;25173;50.430;18.926;2023-11-21T04:24:52;6.07;;;3.50;;
39486;SDS011;25173;50.430;18.926;2023-11-21T04:27:52;10.73;;;5.30;;
39486;SDS011;25173;50.430;18.926;2023-11-21T04:30:53;6.80;;;3.80;;
39486;SDS011;25173;50.430;18.926;2023-11-21T04:33:54;7.35;;;3.92;;
39486;SDS011;25173;50.430;18.926;2023-11-21T04:36:54;8.02;;;4.25;;
39486;SDS011;25173;50.430;18.926;2023-11-21T04:39:55;5.80;;;3.85;;
39486;SDS011;25173;50.430;18.926;2023-11-21T04:42:56;7.00;;;4.25;;
39486;SDS011;25173;50.430;18.926;2023-11-21T04:45:57;5.45;;;3.47;;
39486;SDS011;25173;50.430;18.926;2023-11-21T04:48:58;7.80;;;3.72;;
39486;SDS011;25173;50.430;18.926;2023-11-21T04:51:59;5.43;;;3.63;;
39486;SDS011;25173;50.430;18.926;2023-11-21T04:54:59;7.65;;;3.60;;
39486;SDS011;25173;50.430;18.926;2023-11-21T04:58:02;8.77;;;4.95;;
39486;SDS011;25173;50.430;18.926;2023-11-21T05:01:04;7.88;;;5.00;;
39486;SDS011;25173;50.430;18.926;2023-11-21T05:04:05;7.00;;;3.97;;
39486;SDS011;25173;50.430;18.926;2023-11-21T05:07:06;6.93;;;4.07;;
39486;SDS011;25173;50.430;18.926;2023-11-21T05:10:07;7.03;;;4.75;;
39486;SDS011;25173;50.430;18.926;2023-11-21T05:13:11;6.88;;;4.40;;
39486;SDS011;25173;50.430;18.926;2023-11-21T05:16:11;6.90;;;4.97;;
39486;SDS011;25173;50.430;18.926;2023-11-21T05:19:12;6.70;;;5.00;;
39486;SDS011;25173;50.430;18.926;2023-11-21T05:22:13;8.45;;;5.35;;
39486;SDS011;25173;50.430;18.926;2023-11-21T05:25:14;9.48;;;5.45;;
39486;SDS011;25173;50.430;18.926;2023-11-21T05:28:14;8.32;;;4.50;;
39486;SDS011;25173;50.430;18.926;2023-11-21T05:31:15;5.97;;;4.80;;
39486;SDS011;25173;50.430;18.926;2023-11-21T05:34:16;7.82;;;4.22;;
39486;SDS011;25173;50.430;18.926;2023-11-21T05:37:16;6.20;;;4.18;;
39486;SDS011;25173;50.430;18.926;2023-11-21T05:40:18;9.10;;;4.88;;
39486;SDS011;25173;50.430;18.926;2023-11-21T05:43:18;5.72;;;3.63;;
39486;SDS011;25173;50.430;18.926;2023-11-21T05:46:19;5.78;;;5.18;;
39486;SDS011;25173;50.430;18.926;2023-11-21T05:49:20;9.57;;;6.70;;
39486;SDS011;25173;50.430;18.926;2023-11-21T05:52:21;8.00;;;6.00;;
39486;SDS011;25173;50.430;18.926;2023-11-21T05:55:22;6.75;;;5.47;;
39486;SDS011;25173;50.430;18.926;2023-11-21T05:58:25;12.05;;;6.30;;
39486;SDS011;25173;50.430;18.926;2023-11-21T06:01:26;13.52;;;5.95;;
39486;SDS011;25173;50.430;18.926;2023-11-21T06:04:28;11.13;;;6.07;;
39486;SDS011;25173;50.430;18.926;2023-11-21T06:07:29;10.45;;;6.07;;
39486;SDS011;25173;50.430;18.926;2023-11-21T06:10:29;15.07;;;7.60;;
39486;SDS011;25173;50.430;18.926;2023-11-21T06:13:30;18.00;;;7.95;;
39486;SDS011;25173;50.430;18.926;2023-11-21T06:16:31;16.95;;;8.05;;
39486;SDS011;25173;50.430;18.926;2023-11-21T06:19:31;7.10;;;5.32;;
39486;SDS011;25173;50.430;18.926;2023-11-21T06:22:32;8.43;;;4.88;;
39486;SDS011;25173;50.430;18.926;2023-11-21T06:25:32;10.93;;;7.20;;
39486;SDS011;25173;50.430;18.926;2023-11-21T06:28:36;10.95;;;5.13;;
39486;SDS011;25173;50.430;18.926;2023-11-21T06:31:36;6.20;;;4.72;;
39486;SDS011;25173;50.430;18.926;2023-11-21T06:34:37;5.50;;;4.95;;
39486;SDS011;25173;50.430;18.926;2023-11-21T06:37:38;5.85;;;4.90;;
39486;SDS011;25173;50.430;18.926;2023-11-21T06:40:39;5.50;;;4.35;;
39486;SDS011;25173;50.430;18.926;2023-11-21T06:43:42;6.88;;;5.40;;
39486;SDS011;25173;50.430;18.926;2023-11-21T06:46:46;7.97;;;5.10;;
39486;SDS011;25173;50.430;18.926;2023-11-21T06:49:48;6.47;;;5.38;;
39486;SDS011;25173;50.430;18.926;2023-11-21T06:52:49;6.38;;;4.78;;
39486;SDS011;25173;50.430;18.926;2023-11-21T06:55:50;9.88;;;6.32;;
39486;SDS011;25173;50.430;18.926;2023-11-21T06:58:50;8.40;;;6.22;;
39486;SDS011;25173;50.430;18.926;2023-11-21T07:01:54;10.15;;;6.05;;
39486;SDS011;25173;50.430;18.926;2023-11-21T07:04:54;8.70;;;6.15;;
39486;SDS011;25173;50.430;18.926;2023-11-21T07:07:55;11.30;;;5.30;;
39486;SDS011;25173;50.430;18.926;2023-11-21T07:10:56;10.52;;;6.55;;
39486;SDS011;25173;50.430;18.926;2023-11-21T07:13:57;8.65;;;6.47;;
39486;SDS011;25173;50.430;18.926;2023-11-21T07:16:57;9.60;;;5.82;;
39486;SDS011;25173;50.430;18.926;2023-11-21T07:19:58;8.35;;;6.03;;
39486;SDS011;25173;50.430;18.926;2023-11-21T07:22:58;9.98;;;6.22;;
39486;SDS011;25173;50.430;18.926;2023-11-21T07:26:00;10.80;;;7.47;;
39486;SDS011;25173;50.430;18.926;2023-11-21T07:29:01;9.05;;;6.32;;
39486;SDS011;25173;50.430;18.926;2023-11-21T07:32:03;10.60;;;6.60;;
39486;SDS011;25173;50.430;18.926;2023-11-21T07:35:04;14.73;;;7.72;;
39486;SDS011;25173;50.430;18.926;2023-11-21T07:38:04;12.73;;;7.07;;
39486;SDS011;25173;50.430;18.926;2023-11-21T07:41:05;16.05;;;10.80;;
39486;SDS011;25173;50.430;18.926;2023-11-21T07:44:08;13.98;;;8.70;;
39486;SDS011;25173;50.430;18.926;2023-11-21T07:47:08;12.40;;;6.75;;
39486;SDS011;25173;50.430;18.926;2023-11-21T07:50:09;10.48;;;6.90;;
39486;SDS011;25173;50.430;18.926;2023-11-21T07:53:10;12.43;;;6.95;;
39486;SDS011;25173;50.430;18.926;2023-11-21T07:56:11;8.52;;;6.63;;
39486;SDS011;25173;50.430;18.926;2023-11-21T07:59:12;12.55;;;7.45;;
39486;SDS011;25173;50.430;18.926;2023-11-21T08:02:14;14.02;;;8.50;;
39486;SDS011;25173;50.430;18.926;2023-11-21T08:05:16;11.38;;;8.27;;
39486;SDS011;25173;50.430;18.926;2023-11-21T08:08:17;18.25;;;9.27;;
39486;SDS011;25173;50.430;18.926;2023-11-21T08:11:18;13.63;;;9.18;;
39486;SDS011;25173;50.430;18.926;2023-11-21T08:14:19;13.13;;;8.88;;
39486;SDS011;25173;50.430;18.926;2023-11-21T08:17:20;13.82;;;8.35;;
39486;SDS011;25173;50.430;18.926;2023-11-21T08:20:21;15.65;;;9.23;;
39486;SDS011;25173;50.430;18.926;2023-11-21T08:23:23;15.68;;;10.05;;
39486;SDS011;25173;50.430;18.926;2023-11-21T08:26:26;14.30;;;8.40;;
39486;SDS011;25173;50.430;18.926;2023-11-21T08:29:27;16.95;;;9.82;;
39486;SDS011;25173;50.430;18.926;2023-11-21T08:32:28;16.73;;;9.68;;
39486;SDS011;25173;50.430;18.926;2023-11-21T08:35:30;13.63;;;8.48;;
39486;SDS011;25173;50.430;18.926;2023-11-21T08:38:31;11.38;;;7.32;;
39486;SDS011;25173;50.430;18.926;2023-11-21T08:41:32;7.20;;;4.28;;
39486;SDS011;25173;50.430;18.926;2023-11-21T08:44:33;8.35;;;5.05;;
39486;SDS011;25173;50.430;18.926;2023-11-21T08:47:34;6.28;;;4.32;;
39486;SDS011;25173;50.430;18.926;2023-11-21T08:50:34;9.43;;;4.63;;
39486;SDS011;25173;50.430;18.926;2023-11-21T08:53:35;8.48;;;4.90;;
39486;SDS011;25173;50.430;18.926;2023-11-21T08:56:36;7.93;;;4.45;;
39486;SDS011;25173;50.430;18.926;2023-11-21T08:59:36;8.27;;;5.20;;
39486;SDS011;25173;50.430;18.926;2023-11-21T09:02:37;6.00;;;4.28;;
39486;SDS011;25173;50.430;18.926;2023-11-21T09:05:39;9.85;;;5.95;;
39486;SDS011;25173;50.430;18.926;2023-11-21T09:08:40;7.90;;;5.38;;
39486;SDS011;25173;50.430;18.926;2023-11-21T09:11:42;10.77;;;7.07;;
39486;SDS011;25173;50.430;18.926;2023-11-21T09:14:44;8.70;;;5.85;;
39486;SDS011;25173;50.430;18.926;2023-11-21T09:17:45;11.00;;;7.60;;
39486;SDS011;25173;50.430;18.926;2023-11-21T09:20:45;7.70;;;5.75;;
39486;SDS011;25173;50.430;18.926;2023-11-21T09:23:48;10.70;;;5.45;;
39486;SDS011;25173;50.430;18.926;2023-11-21T09:26:49;10.07;;;6.13;;
39486;SDS011;25173;50.430;18.926;2023-11-21T09:29:49;10.07;;;6.93;;
39486;SDS011;25173;50.430;18.926;2023-11-21T09:32:50;12.82;;;7.60;;
39486;SDS011;25173;50.430;18.926;2023-11-21T09:35:51;10.70;;;7.45;;
39486;SDS011;25173;50.430;18.926;2023-11-21T09:38:53;8.10;;;4.97;;
39486;SDS011;25173;50.430;18.926;2023-11-21T09:41:57;9.73;;;6.30;;
39486;SDS011;25173;50.430;18.926;2023-11-21T09:45:07;9.88;;;6.80;;
39486;SDS011;25173;50.430;18.926;2023-11-21T09:48:20;13.68;;;8.38;;
39486;SDS011;25173;50.430;18.926;2023-11-21T09:51:22;24.27;;;13.35;;
39486;SDS011;25173;50.430;18.926;2023-11-21T09:54:27;17.58;;;8.55;;
39486;SDS011;25173;50.430;18.926;2023-11-21T09:57:29;9.32;;;6.93;;
39486;SDS011;25173;50.430;18.926;2023-11-21T10:00:30;10.35;;;7.60;;
39486;SDS011;25173;50.430;18.926;2023-11-21T10:03:35;19.85;;;12.50;;
39486;SDS011;25173;50.430;18.926;2023-11-21T10:06:41;20.58;;;12.02;;
39486;SDS011;25173;50.430;18.926;2023-11-21T10:09:42;16.92;;;7.88;;
39486;SDS011;25173;50.430;18.926;2023-11-21T10:12:43;22.13;;;10.98;;
39486;SDS011;25173;50.430;18.926;2023-11-21T10:15:49;7.50;;;3.95;;
39486;SDS011;25173;50.430;18.926;2023-11-21T10:18:51;5.45;;;3.30;;
39486;SDS011;25173;50.430;18.926;2023-11-21T10:21:54;9.40;;;4.75;;
39486;SDS011;25173;50.430;18.926;2023-11-21T10:24:57;7.43;;;5.20;;
39486;SDS011;25173;50.430;18.926;2023-11-21T10:28:01;5.40;;;4.25;;
39486;SDS011;25173;50.430;18.926;2023-11-21T10:31:06;9.20;;;4.50;;
39486;SDS011;25173;50.430;18.926;2023-11-21T10:34:14;7.10;;;3.70;;
39486;SDS011;25173;50.430;18.926;2023-11-21T10:37:16;6.72;;;3.40;;
39486;SDS011;25173;50.430;18.926;2023-11-21T10:40:17;8.68;;;5.28;;
39486;SDS011;25173;50.430;18.926;2023-11-21T10:43:18;7.00;;;4.47;;
39486;SDS011;25173;50.430;18.926;2023-11-21T10:46:19;6.80;;;3.92;;
39486;SDS011;25173;50.430;18.926;2023-11-21T10:49:20;6.72;;;4.25;;
39486;SDS011;25173;50.430;18.926;2023-11-21T10:52:21;5.88;;;3.88;;
39486;SDS011;25173;50.430;18.926;2023-11-21T10:55:21;6.35;;;3.80;;
39486;SDS011;25173;50.430;18.926;2023-11-21T10:58:24;6.85;;;4.25;;
39486;SDS011;25173;50.430;18.926;2023-11-21T11:01:25;12.90;;;8.73;;
39486;SDS011;25173;50.430;18.926;2023-11-21T11:04:29;5.72;;;3.67;;
39486;SDS011;25173;50.430;18.926;2023-11-21T11:07:31;6.13;;;3.95;;
39486;SDS011;25173;50.430;18.926;2023-11-21T11:10:34;7.03;;;4.20;;
39486;SDS011;25173;50.430;18.926;2023-11-21T11:13:35;12.60;;;11.05;;
39486;SDS011;25173;50.430;18.926;2023-11-21T11:16:38;7.53;;;4.57;;
39486;SDS011;25173;50.430;18.926;2023-11-21T11:19:41;7.00;;;3.97;;
39486;SDS011;25173;50.430;18.926;2023-11-21T11:22:44;8.73;;;4.80;;
39486;SDS011;25173;50.430;18.926;2023-11-21T11:32:56;11.32;;;7.00;;
39486;SDS011;25173;50.430;18.926;2023-11-21T11:39:36;7.00;;;4.65;;
39486;SDS011;25173;50.430;18.926;2023-11-21T11:42:38;8.63;;;4.53;;
39486;SDS011;25173;50.430;18.926;2023-11-21T11:45:39;8.02;;;4.95;;
39486;SDS011;25173;50.430;18.926;2023-11-21T11:48:42;8.35;;;5.10;;
39486;SDS011;25173;50.430;18.926;2023-11-21T11:51:45;9.23;;;5.30;;
39486;SDS011;25173;50.430;18.926;2023-11-21T11:54:46;15.52;;;8.88;;
39486;SDS011;25173;50.430;18.926;2023-11-21T11:57:53;16.55;;;8.90;;
39486;SDS011;25173;50.430;18.926;2023-11-21T12:00:58;9.02;;;5.80;;
39486;SDS011;25173;50.430;18.926;2023-11-21T12:07:17;7.47;;;5.22;;
39486;SDS011;25173;50.430;18.926;2023-11-21T12:10:19;17.65;;;9.32;;
39486;SDS011;25173;50.430;18.926;2023-11-21T12:13:21;4.40;;;2.65;;
39486;SDS011;25173;50.430;18.926;2023-11-21T12:16:23;26.27;;;17.02;;
39486;SDS011;25173;50.430;18.926;2023-11-21T12:19:27;5.90;;;3.95;;
39486;SDS011;25173;50.430;18.926;2023-11-21T12:22:28;6.28;;;4.63;;
39486;SDS011;25173;50.430;18.926;2023-11-21T12:25:29;7.85;;;5.63;;
39486;SDS011;25173;50.430;18.926;2023-11-21T12:28:34;5.57;;;3.97;;
39486;SDS011;25173;50.430;18.926;2023-11-21T12:31:35;4.85;;;3.70;;
39486;SDS011;25173;50.430;18.926;2023-11-21T12:34:36;5.93;;;3.95;;
39486;SDS011;25173;50.430;18.926;2023-11-21T12:37:39;8.73;;;4.32;;
39486;SDS011;25173;50.430;18.926;2023-11-21T12:40:40;7.50;;;4.15;;
39486;SDS011;25173;50.430;18.926;2023-11-21T12:43:41;4.35;;;3.35;;
39486;SDS011;25173;50.430;18.926;2023-11-21T12:46:42;5.78;;;3.90;;
39486;SDS011;25173;50.430;18.926;2023-11-21T12:49:45;6.38;;;4.03;;
39486;SDS011;25173;50.430;18.926;2023-11-21T12:52:46;7.93;;;4.95;;
39486;SDS011;25173;50.430;18.926;2023-11-21T12:55:50;8.13;;;4.55;;
39486;SDS011;25173;50.430;18.926;2023-11-21T12:58:53;6.97;;;4.55;;
39486;SDS011;25173;50.430;18.926;2023-11-21T13:01:57;8.63;;;5.72;;
39486;SDS011;25173;50.430;18.926;2023-11-21T13:05:00;9.70;;;7.75;;
39486;SDS011;25173;50.430;18.926;2023-11-21T13:08:07;7.97;;;6.50;;
39486;SDS011;25173;50.430;18.926;2023-11-21T13:11:10;41.95;;;20.77;;
39486;SDS011;25173;50.430;18.926;2023-11-21T13:14:11;48.08;;;24.33;;
39486;SDS011;25173;50.430;18.926;2023-11-21T13:17:12;54.72;;;26.38;;
39486;SDS011;25173;50.430;18.926;2023-11-21T13:20:13;186.05;;;69.10;;
39486;SDS011;25173;50.430;18.926;2023-11-21T13:23:17;283.30;;;101.22;;
39486;SDS011;25173;50.430;18.926;2023-11-21T13:26:18;259.15;;;97.38;;
39486;SDS011;25173;50.430;18.926;2023-11-21T13:29:20;155.85;;;60.50;;
39486;SDS011;25173;50.430;18.926;2023-11-21T13:32:21;301.08;;;118.53;;
39486;SDS011;25173;50.430;18.926;2023-11-21T13:35:23;274.38;;;105.80;;
39486;SDS011;25173;50.430;18.926;2023-11-21T13:38:31;25.15;;;12.88;;
39486;SDS011;25173;50.430;18.926;2023-11-21T13:41:33;44.17;;;20.10;;
39486;SDS011;25173;50.430;18.926;2023-11-21T13:44:34;43.45;;;19.95;;
39486;SDS011;25173;50.430;18.926;2023-11-21T13:47:38;102.55;;;43.88;;
39486;SDS011;25173;50.430;18.926;2023-11-21T13:50:40;82.13;;;37.05;;
39486;SDS011;25173;50.430;18.926;2023-11-21T13:53:48;97.93;;;44.30;;
39486;SDS011;25173;50.430;18.926;2023-11-21T13:56:53;36.40;;;20.45;;
39486;SDS011;25173;50.430;18.926;2023-11-21T13:59:55;28.15;;;16.70;;
39486;SDS011;25173;50.430;18.926;2023-11-21T14:02:56;56.85;;;18.65;;
39486;SDS011;25173;50.430;18.926;2023-11-21T14:06:00;33.88;;;16.15;;
39486;SDS011;25173;50.430;18.926;2023-11-21T14:09:07;56.20;;;23.40;;
39486;SDS011;25173;50.430;18.926;2023-11-21T14:12:08;34.78;;;18.38;;
39486;SDS011;25173;50.430;18.926;2023-11-21T14:15:10;37.13;;;22.65;;
39486;SDS011;25173;50.430;18.926;2023-11-21T14:18:12;39.55;;;25.40;;
39486;SDS011;25173;50.430;18.926;2023-11-21T14:21:17;17.83;;;12.10;;
39486;SDS011;25173;50.430;18.926;2023-11-21T14:24:19;13.05;;;9.77;;
39486;SDS011;25173;50.430;18.926;2023-11-21T14:27:20;20.95;;;11.70;;
39486;SDS011;25173;50.430;18.926;2023-11-21T14:30:21;61.70;;;50.30;;
39486;SDS011;25173;50.430;18.926;2023-11-21T14:33:22;84.28;;;67.45;;
39486;SDS011;25173;50.430;18.926;2023-11-21T14:36:23;46.28;;;35.75;;
39486;SDS011;25173;50.430;18.926;2023-11-21T14:39:24;39.17;;;29.90;;
39486;SDS011;25173;50.430;18.926;2023-11-21T14:42:27;28.70;;;22.17;;
39486;SDS011;25173;50.430;18.926;2023-11-21T14:45:29;27.35;;;16.95;;
39486;SDS011;25173;50.430;18.926;2023-11-21T14:48:30;28.42;;;19.30;;
39486;SDS011;25173;50.430;18.926;2023-11-21T14:51:54;22.80;;;15.30;;
39486;SDS011;25173;50.430;18.926;2023-11-21T14:55:01;21.13;;;14.10;;
39486;SDS011;25173;50.430;18.926;2023-11-21T14:58:21;12.48;;;7.25;;
39486;SDS011;25173;50.430;18.926;2023-11-21T15:01:30;47.97;;;24.85;;
39486;SDS011;25173;50.430;18.926;2023-11-21T15:04:55;17.33;;;12.18;;
39486;SDS011;25173;50.430;18.926;2023-11-21T15:08:02;18.30;;;11.23;;
39486;SDS011;25173;50.430;18.926;2023-11-21T15:11:20;111.07;;;60.63;;
39486;SDS011;25173;50.430;18.926;2023-11-21T15:14:25;60.85;;;36.05;;
39486;SDS011;25173;50.430;18.926;2023-11-21T15:17:31;65.85;;;34.78;;
39486;SDS011;25173;50.430;18.926;2023-11-21T15:20:32;53.00;;;32.85;;
39486;SDS011;25173;50.430;18.926;2023-11-21T15:23:33;31.70;;;20.80;;
39486;SDS011;25173;50.430;18.926;2023-11-21T15:26:35;10.80;;;7.80;;
39486;SDS011;25173;50.430;18.926;2023-11-21T15:29:35;12.27;;;7.78;;
39486;SDS011;25173;50.430;18.926;2023-11-21T15:32:36;14.77;;;8.52;;
39486;SDS011;25173;50.430;18.926;2023-11-21T15:35:37;140.57;;;97.03;;
39486;SDS011;25173;50.430;18.926;2023-11-21T15:38:39;27.35;;;17.55;;
39486;SDS011;25173;50.430;18.926;2023-11-21T15:41:40;23.23;;;14.23;;
39486;SDS011;25173;50.430;18.926;2023-11-21T15:44:41;30.42;;;21.80;;
39486;SDS011;25173;50.430;18.926;2023-11-21T15:47:42;29.20;;;20.35;;
39486;SDS011;25173;50.430;18.926;2023-11-21T15:50:43;85.53;;;47.38;;
39486;SDS011;25173;50.430;18.926;2023-11-21T15:53:43;88.47;;;49.65;;
39486;SDS011;25173;50.430;18.926;2023-11-21T15:56:44;52.85;;;34.22;;
39486;SDS011;25173;50.430;18.926;2023-11-21T15:59:45;37.13;;;25.15;;
39486;SDS011;25173;50.430;18.926;2023-11-21T16:02:46;57.00;;;34.72;;
39486;SDS011;25173;50.430;18.926;2023-11-21T16:05:46;112.65;;;72.90;;
39486;SDS011;25173;50.430;18.926;2023-11-21T16:08:48;179.48;;;120.75;;
39486;SDS011;25173;50.430;18.926;2023-11-21T16:11:49;42.50;;;29.30;;
39486;SDS011;25173;50.430;18.926;2023-11-21T16:14:58;32.95;;;22.02;;
39486;SDS011;25173;50.430;18.926;2023-11-21T16:17:58;61.25;;;41.00;;
39486;SDS011;25173;50.430;18.926;2023-11-21T16:20:59;36.90;;;22.67;;
39486;SDS011;25173;50.430;18.926;2023-11-21T16:24:00;103.85;;;63.47;;
39486;SDS011;25173;50.430;18.926;2023-11-21T16:27:01;48.00;;;29.02;;
39486;SDS011;25173;50.430;18.926;2023-11-21T16:30:05;116.80;;;69.00;;
39486;SDS011;25173;50.430;18.926;2023-11-21T16:33:06;227.30;;;130.02;;
39486;SDS011;25173;50.430;18.926;2023-11-21T16:36:07;143.98;;;81.80;;
39486;SDS011;25173;50.430;18.926;2023-11-21T16:39:08;107.65;;;62.67;;
39486;SDS011;25173;50.430;18.926;2023-11-21T16:42:12;60.95;;;36.90;;
39486;SDS011;25173;50.430;18.926;2023-11-21T16:45:14;152.18;;;92.47;;
39486;SDS011;25173;50.430;18.926;2023-11-21T16:48:15;76.22;;;45.95;;
39486;SDS011;25173;50.430;18.926;2023-11-21T16:51:19;152.40;;;92.13;;
39486;SDS011;25173;50.430;18.926;2023-11-21T16:54:20;140.57;;;85.95;;
39486;SDS011;25173;50.430;18.926;2023-11-21T16:57:20;138.88;;;82.90;;
39486;SDS011;25173;50.430;18.926;2023-11-21T17:00:21;224.38;;;132.10;;
39486;SDS011;25173;50.430;18.926;2023-11-21T17:03:22;143.45;;;83.95;;
39486;SDS011;25173;50.430;18.926;2023-11-21T17:06:24;188.30;;;115.03;;
39486;SDS011;25173;50.430;18.926;2023-11-21T17:09:26;140.35;;;82.22;;
39486;SDS011;25173;50.430;18.926;2023-11-21T17:12:27;152.90;;;89.07;;
39486;SDS011;25173;50.430;18.926;2023-11-21T17:15:27;46.05;;;27.60;;
39486;SDS011;25173;50.430;18.926;2023-11-21T17:18:28;36.22;;;22.85;;
39486;SDS011;25173;50.430;18.926;2023-11-21T17:21:29;70.35;;;43.50;;
39486;SDS011;25173;50.430;18.926;2023-11-21T17:24:30;36.50;;;23.20;;
39486;SDS011;25173;50.430;18.926;2023-11-21T17:27:33;22.27;;;15.57;;
39486;SDS011;25173;50.430;18.926;2023-11-21T17:30:33;38.13;;;24.83;;
39486;SDS011;25173;50.430;18.926;2023-11-21T17:33:34;56.20;;;33.58;;
39486;SDS011;25173;50.430;18.926;2023-11-21T17:36:36;66.47;;;41.30;;
39486;SDS011;25173;50.430;18.926;2023-11-21T17:39:38;53.72;;;35.17;;
39486;SDS011;25173;50.430;18.926;2023-11-21T17:42:40;52.78;;;35.08;;
39486;SDS011;25173;50.430;18.926;2023-11-21T17:45:41;34.05;;;23.02;;
39486;SDS011;25173;50.430;18.926;2023-11-21T17:48:42;25.88;;;18.50;;
39486;SDS011;25173;50.430;18.926;2023-11-21T17:51:42;16.20;;;11.30;;
39486;SDS011;25173;50.430;18.926;2023-11-21T17:54:43;16.67;;;10.75;;
39486;SDS011;25173;50.430;18.926;2023-11-21T17:57:44;18.15;;;12.25;;
39486;SDS011;25173;50.430;18.926;2023-11-21T18:00:46;16.83;;;10.00;;